sensor_id;sensor_type;location;lat;lon;timestamp;P1;durP1;ratioP1;P2;durP2;ratioP2
66663;SDS011;59683;51.428;-1.994;2023-07-20T00:01:13;9.17;;;4.13;;
66663;SDS011;59683;51.428;-1.994;2023-07-20T00:03:39;7.80;;;4.20;;
66663;SDS011;59683;51.428;-1.994;2023-07-20T00:06:04;7.90;;;4.67;;
66663;SDS011;59683;51.428;-1.994;2023-07-20T00:08:30;7.83;;;4.70;;
66663;SDS011;59683;51.428;-1.994;2023-07-20T00:10:55;10.00;;;5.17;;
66663;SDS011;59683;51.428;-1.994;2023-07-20T00:13:21;11.57;;;5.47;;
66663;SDS011;59683;51.428;-1.994;2023-07-20T00:15:47;11.17;;;6.00;;
66663;SDS011;59683;51.428;-1.994;2023-07-20T00:18:12;15.10;;;6.20;;
66663;SDS011;59683;51.428;-1.994;2023-07-20T00:20:38;12.43;;;5.70;;
66663;SDS011;59683;51.428;-1.994;2023-07-20T00:23:04;10.53;;;5.80;;
66663;SDS011;59683;51.428;-1.994;2023-07-20T00:25:29;12.20;;;5.60;;
66663;SDS011;59683;51.428;-1.994;2023-07-20T00:27:55;8.97;;;5.80;;
66663;SDS011;59683;51.428;-1.994;2023-07-20T00:30:20;11.00;;;5.97;;
66663;SDS011;59683;51.428;-1.994;2023-07-20T00:32:45;10.50;;;5.50;;
66663;SDS011;59683;51.428;-1.994;2023-07-20T06:06:07;11.05;;;5.15;;
66663;SDS011;59683;51.428;-1.994;2023-07-20T06:08:34;11.45;;;4.43;;
66663;SDS011;59683;51.428;-1.994;2023-07-20T06:10:59;7.70;;;3.33;;
66663;SDS011;59683;51.428;-1.994;2023-07-20T06:13:25;5.17;;;3.23;;
66663;SDS011;59683;51.428;-1.994;2023-07-20T06:15:50;4.57;;;2.60;;
66663;SDS011;59683;51.428;-1.994;2023-07-20T06:18:15;6.20;;;2.80;;
66663;SDS011;59683;51.428;-1.994;2023-07-20T06:20:41;6.23;;;2.77;;
66663;SDS011;59683;51.428;-1.994;2023-07-20T06:23:06;5.77;;;2.10;;
66663;SDS011;59683;51.428;-1.994;2023-07-20T06:25:32;6.00;;;2.20;;
66663;SDS011;59683;51.428;-1.994;2023-07-20T06:27:57;4.03;;;1.67;;
66663;SDS011;59683;51.428;-1.994;2023-07-20T06:30:23;3.20;;;1.77;;
66663;SDS011;59683;51.428;-1.994;2023-07-20T06:32:49;3.70;;;2.03;;
66663;SDS011;59683;51.428;-1.994;2023-07-20T06:35:14;3.43;;;1.70;;
66663;SDS011;59683;51.428;-1.994;2023-07-20T06:37:41;3.17;;;1.50;;
66663;SDS011;59683;51.428;-1.994;2023-07-20T06:40:07;6.30;;;2.00;;
66663;SDS011;59683;51.428;-1.994;2023-07-20T06:42:34;4.00;;;1.60;;
66663;SDS011;59683;51.428;-1.994;2023-07-20T06:45:00;6.00;;;1.30;;
66663;SDS011;59683;51.428;-1.994;2023-07-20T06:47:26;2.83;;;1.50;;
66663;SDS011;59683;51.428;-1.994;2023-07-20T06:49:52;3.23;;;1.37;;
66663;SDS011;59683;51.428;-1.994;2023-07-20T06:52:17;4.90;;;2.00;;
66663;SDS011;59683;51.428;-1.994;2023-07-20T06:54:43;3.80;;;1.23;;
66663;SDS011;59683;51.428;-1.994;2023-07-20T06:57:08;2.60;;;1.00;;
66663;SDS011;59683;51.428;-1.994;2023-07-20T06:59:33;3.10;;;1.30;;
66663;SDS011;59683;51.428;-1.994;2023-07-20T07:01:59;6.10;;;2.20;;
66663;SDS011;59683;51.428;-1.994;2023-07-20T07:04:24;3.40;;;1.13;;
66663;SDS011;59683;51.428;-1.994;2023-07-20T07:06:50;3.40;;;1.40;;
66663;SDS011;59683;51.428;-1.994;2023-07-20T07:09:15;4.27;;;1.30;;
66663;SDS011;59683;51.428;-1.994;2023-07-20T07:11:41;3.20;;;1.23;;
66663;SDS011;59683;51.428;-1.994;2023-07-20T07:14:06;6.15;;;1.35;;
66663;SDS011;59683;51.428;-1.994;2023-07-20T07:16:31;3.10;;;1.20;;
66663;SDS011;59683;51.428;-1.994;2023-07-20T07:18:57;2.83;;;1.20;;
66663;SDS011;59683;51.428;-1.994;2023-07-20T07:21:23;4.97;;;1.52;;
66663;SDS011;59683;51.428;-1.994;2023-07-20T07:23:48;4.53;;;1.40;;
66663;SDS011;59683;51.428;-1.994;2023-07-20T07:26:14;2.05;;;1.08;;
66663;SDS011;59683;51.428;-1.994;2023-07-20T07:28:40;4.60;;;1.20;;
66663;SDS011;59683;51.428;-1.994;2023-07-20T07:31:05;3.20;;;1.20;;
66663;SDS011;59683;51.428;-1.994;2023-07-20T07:33:31;5.18;;;1.45;;
66663;SDS011;59683;51.428;-1.994;2023-07-20T07:35:57;3.08;;;1.05;;
66663;SDS011;59683;51.428;-1.994;2023-07-20T07:38:22;2.60;;;1.00;;
66663;SDS011;59683;51.428;-1.994;2023-07-20T07:40:48;3.00;;;1.10;;
66663;SDS011;59683;51.428;-1.994;2023-07-20T07:43:13;2.90;;;1.13;;
66663;SDS011;59683;51.428;-1.994;2023-07-20T07:45:39;2.67;;;1.15;;
66663;SDS011;59683;51.428;-1.994;2023-07-20T07:48:05;3.92;;;1.30;;
66663;SDS011;59683;51.428;-1.994;2023-07-20T07:50:31;2.97;;;1.00;;
66663;SDS011;59683;51.428;-1.994;2023-07-20T07:52:57;3.97;;;0.90;;
66663;SDS011;59683;51.428;-1.994;2023-07-20T07:55:23;6.07;;;1.17;;
66663;SDS011;59683;51.428;-1.994;2023-07-20T07:57:49;2.05;;;0.95;;
66663;SDS011;59683;51.428;-1.994;2023-07-20T08:00:14;2.30;;;1.05;;
66663;SDS011;59683;51.428;-1.994;2023-07-20T08:02:43;3.22;;;1.00;;
66663;SDS011;59683;51.428;-1.994;2023-07-20T08:05:09;3.92;;;0.90;;
66663;SDS011;59683;51.428;-1.994;2023-07-20T08:07:37;4.70;;;1.05;;
66663;SDS011;59683;51.428;-1.994;2023-07-20T08:10:03;5.53;;;0.75;;
66663;SDS011;59683;51.428;-1.994;2023-07-20T08:12:29;5.53;;;0.88;;
66663;SDS011;59683;51.428;-1.994;2023-07-20T08:14:55;1.90;;;0.70;;
66663;SDS011;59683;51.428;-1.994;2023-07-20T08:17:20;3.38;;;0.82;;
66663;SDS011;59683;51.428;-1.994;2023-07-20T08:19:46;3.05;;;0.80;;
66663;SDS011;59683;51.428;-1.994;2023-07-20T08:22:11;2.22;;;0.68;;
66663;SDS011;59683;51.428;-1.994;2023-07-20T08:24:41;5.10;;;0.60;;
66663;SDS011;59683;51.428;-1.994;2023-07-20T08:27:07;4.95;;;0.93;;
66663;SDS011;59683;51.428;-1.994;2023-07-20T08:29:33;2.15;;;0.60;;
66663;SDS011;59683;51.428;-1.994;2023-07-20T08:34:58;0.93;;;0.43;;
66663;SDS011;59683;51.428;-1.994;2023-07-20T08:37:23;4.13;;;0.73;;
66663;SDS011;59683;51.428;-1.994;2023-07-20T08:39:49;1.60;;;0.70;;
66663;SDS011;59683;51.428;-1.994;2023-07-20T08:42:14;1.38;;;0.65;;
66663;SDS011;59683;51.428;-1.994;2023-07-20T08:44:42;1.60;;;0.70;;
66663;SDS011;59683;51.428;-1.994;2023-07-20T08:47:09;1.77;;;0.50;;
66663;SDS011;59683;51.428;-1.994;2023-07-20T08:49:37;2.28;;;0.50;;
66663;SDS011;59683;51.428;-1.994;2023-07-20T08:52:04;2.15;;;0.57;;
66663;SDS011;59683;51.428;-1.994;2023-07-20T08:54:31;4.95;;;0.80;;
66663;SDS011;59683;51.428;-1.994;2023-07-20T08:57:03;3.97;;;0.70;;
66663;SDS011;59683;51.428;-1.994;2023-07-20T08:59:30;2.78;;;0.65;;
66663;SDS011;59683;51.428;-1.994;2023-07-20T09:01:58;2.03;;;0.68;;
66663;SDS011;59683;51.428;-1.994;2023-07-20T09:19:53;4.00;;;0.70;;
66663;SDS011;59683;51.428;-1.994;2023-07-20T09:22:19;2.08;;;0.68;;
66663;SDS011;59683;51.428;-1.994;2023-07-20T09:24:45;2.53;;;0.60;;
66663;SDS011;59683;51.428;-1.994;2023-07-20T09:27:10;1.98;;;0.70;;
66663;SDS011;59683;51.428;-1.994;2023-07-20T09:29:49;1.42;;;0.35;;
66663;SDS011;59683;51.428;-1.994;2023-07-20T09:32:19;2.53;;;0.55;;
66663;SDS011;59683;51.428;-1.994;2023-07-20T09:34:47;2.08;;;0.52;;
66663;SDS011;59683;51.428;-1.994;2023-07-20T09:37:19;1.80;;;0.40;;
66663;SDS011;59683;51.428;-1.994;2023-07-20T09:39:48;1.48;;;0.60;;
66663;SDS011;59683;51.428;-1.994;2023-07-20T09:42:17;2.13;;;0.30;;
66663;SDS011;59683;51.428;-1.994;2023-07-20T09:44:43;1.95;;;0.50;;
66663;SDS011;59683;51.428;-1.994;2023-07-20T09:47:09;1.20;;;0.30;;
66663;SDS011;59683;51.428;-1.994;2023-07-20T09:49:39;4.40;;;0.77;;
66663;SDS011;59683;51.428;-1.994;2023-07-20T09:52:06;2.92;;;0.60;;
66663;SDS011;59683;51.428;-1.994;2023-07-20T09:54:34;1.50;;;0.50;;
66663;SDS011;59683;51.428;-1.994;2023-07-20T09:57:03;1.52;;;0.52;;
66663;SDS011;59683;51.428;-1.994;2023-07-20T09:59:30;1.25;;;0.40;;
66663;SDS011;59683;51.428;-1.994;2023-07-20T10:01:57;0.93;;;0.40;;
66663;SDS011;59683;51.428;-1.994;2023-07-20T10:04:26;1.38;;;0.60;;
66663;SDS011;59683;51.428;-1.994;2023-07-20T10:06:54;1.08;;;0.50;;
66663;SDS011;59683;51.428;-1.994;2023-07-20T10:09:21;2.35;;;0.60;;
66663;SDS011;59683;51.428;-1.994;2023-07-20T10:11:52;1.83;;;0.50;;
66663;SDS011;59683;51.428;-1.994;2023-07-20T10:14:20;1.88;;;0.70;;
66663;SDS011;59683;51.428;-1.994;2023-07-20T10:16:55;1.15;;;0.43;;
66663;SDS011;59683;51.428;-1.994;2023-07-20T10:19:46;1.63;;;0.50;;
66663;SDS011;59683;51.428;-1.994;2023-07-20T10:22:15;1.73;;;0.60;;
66663;SDS011;59683;51.428;-1.994;2023-07-20T10:24:45;1.52;;;0.50;;
66663;SDS011;59683;51.428;-1.994;2023-07-20T10:27:14;1.17;;;0.45;;
66663;SDS011;59683;51.428;-1.994;2023-07-20T10:29:40;1.13;;;0.43;;
66663;SDS011;59683;51.428;-1.994;2023-07-20T10:32:10;1.02;;;0.43;;
66663;SDS011;59683;51.428;-1.994;2023-07-20T10:34:36;1.25;;;0.60;;
66663;SDS011;59683;51.428;-1.994;2023-07-20T10:37:01;1.75;;;0.50;;
66663;SDS011;59683;51.428;-1.994;2023-07-20T10:39:28;1.50;;;0.50;;
66663;SDS011;59683;51.428;-1.994;2023-07-20T10:44:42;9.25;;;0.98;;
66663;SDS011;59683;51.428;-1.994;2023-07-20T10:52:41;2.92;;;0.73;;
66663;SDS011;59683;51.428;-1.994;2023-07-20T10:55:25;2.45;;;0.50;;
66663;SDS011;59683;51.428;-1.994;2023-07-20T10:58:06;1.10;;;0.40;;
66663;SDS011;59683;51.428;-1.994;2023-07-20T11:00:36;4.07;;;0.80;;
66663;SDS011;59683;51.428;-1.994;2023-07-20T11:03:02;1.52;;;0.60;;
66663;SDS011;59683;51.428;-1.994;2023-07-20T11:05:31;2.05;;;0.50;;
66663;SDS011;59683;51.428;-1.994;2023-07-20T11:08:12;2.50;;;0.80;;
66663;SDS011;59683;51.428;-1.994;2023-07-20T11:42:22;3.33;;;0.60;;
66663;SDS011;59683;51.428;-1.994;2023-07-20T11:44:51;2.42;;;0.55;;
66663;SDS011;59683;51.428;-1.994;2023-07-20T11:47:41;1.45;;;0.50;;
66663;SDS011;59683;51.428;-1.994;2023-07-20T12:03:01;1.65;;;0.52;;
66663;SDS011;59683;51.428;-1.994;2023-07-20T12:05:31;2.05;;;0.50;;
66663;SDS011;59683;51.428;-1.994;2023-07-20T12:08:00;1.50;;;0.40;;
66663;SDS011;59683;51.428;-1.994;2023-07-20T12:10:26;1.83;;;0.73;;
66663;SDS011;59683;51.428;-1.994;2023-07-20T12:12:53;1.88;;;0.40;;
66663;SDS011;59683;51.428;-1.994;2023-07-20T12:18:42;3.70;;;0.80;;
66663;SDS011;59683;51.428;-1.994;2023-07-20T12:29:00;1.83;;;0.52;;
66663;SDS011;59683;51.428;-1.994;2023-07-20T12:31:28;2.70;;;0.80;;
66663;SDS011;59683;51.428;-1.994;2023-07-20T12:33:56;3.42;;;0.95;;
66663;SDS011;59683;51.428;-1.994;2023-07-20T12:36:22;1.45;;;0.60;;
66663;SDS011;59683;51.428;-1.994;2023-07-20T12:38:48;1.80;;;0.55;;
66663;SDS011;59683;51.428;-1.994;2023-07-20T12:41:13;2.10;;;0.55;;
66663;SDS011;59683;51.428;-1.994;2023-07-20T12:43:39;4.15;;;0.68;;
66663;SDS011;59683;51.428;-1.994;2023-07-20T12:46:05;0.93;;;0.40;;
66663;SDS011;59683;51.428;-1.994;2023-07-20T12:48:31;1.88;;;0.80;;
66663;SDS011;59683;51.428;-1.994;2023-07-20T12:50:57;3.05;;;0.50;;
66663;SDS011;59683;51.428;-1.994;2023-07-20T12:53:22;1.95;;;0.60;;
66663;SDS011;59683;51.428;-1.994;2023-07-20T12:55:47;2.08;;;0.30;;
66663;SDS011;59683;51.428;-1.994;2023-07-20T12:58:13;1.95;;;0.50;;
66663;SDS011;59683;51.428;-1.994;2023-07-20T13:00:39;1.42;;;0.40;;
66663;SDS011;59683;51.428;-1.994;2023-07-20T13:03:04;2.35;;;0.93;;
66663;SDS011;59683;51.428;-1.994;2023-07-20T13:05:32;2.25;;;0.80;;
66663;SDS011;59683;51.428;-1.994;2023-07-20T13:07:57;1.50;;;0.60;;
66663;SDS011;59683;51.428;-1.994;2023-07-20T13:10:25;1.70;;;0.50;;
66663;SDS011;59683;51.428;-1.994;2023-07-20T13:12:54;1.80;;;0.70;;
